• Join FlightAware (Why Join?)
  • Login
  • US Flag 
12:12AM EDT


 

Airport Tracker/Info


-or-


 

Live Flight TrackerFlight Track Log ✈ SKW2974 ✈ 08-May-2013 ✈ KPHX - KGJT

Flight Track Log - Related Links

Times and Time Zones

All times are in EDT time to prevent confusion due to time zone crossing. See the SKW2974 flight status page for this flight to view local times or setup timezone preferences in your user account.

Time Position Orientation Groundspeed Altitude Reporting Facility
EDT Latitude Longitude Course Direction KTS MPH feet Rate Location/Type
11:53AM 33.4333 -111.9833 90° East 175 201 1,800  Level Phoenix TRACON
11:54AM 33.4333 -111.9167 90° East 209 241 3,500 2,220 Climbing Phoenix TRACON
11:55AM 33.4425 -111.8636 78° East 222 255 5,800 2,400 Climbing Albuquerque Center
11:56AM 33.5053 -111.8236 28° Northeast 268 308 8,100 2,280 Climbing Albuquerque Center
11:57AM 33.5847 -111.8100 North 286 329 10,600 2,400 Climbing Albuquerque Center
11:58AM 33.6681 -111.7958 North 297 342 13,100 1,920 Climbing Albuquerque Center
11:59AM 33.7561 -111.7803 North 313 360 14,600 1,560 Climbing Albuquerque Center
12:00PM 33.8689 -111.7606 North 337 388 16,400 1,500 Climbing Albuquerque Center
12:01PM 33.9644 -111.7442 North 352 405 17,800 1,440 Climbing Albuquerque Center
12:02PM 34.0742 -111.7217 10° North 358 412 19,400 1,500 Climbing Albuquerque Center
12:03PM 34.1453 -111.6575 37° Northeast 373 429 21,000 1,380 Climbing Albuquerque Center
12:04PM 34.2564 -111.5972 24° Northeast 367 422 22,300 1,020 Climbing Albuquerque Center
12:05PM 34.3539 -111.5444 24° Northeast 377 434 23,200 780 Climbing Albuquerque Center
12:06PM 34.4536 -111.4889 25° Northeast 390 449 24,000 720 Climbing Albuquerque Center
12:07PM 34.5561 -111.4331 24° Northeast 398 458 24,800 720 Climbing Albuquerque Center
12:08PM 34.6586 -111.3753 25° Northeast 404 465 25,600 780 Climbing Albuquerque Center
12:09PM 34.7642 -111.3183 24° Northeast 412 474 26,400 780 Climbing Albuquerque Center
12:10PM 34.8894 -111.2483 25° Northeast 413 475 27,300 840 Climbing Albuquerque Center
12:11PM 34.9953 -111.1886 25° Northeast 416 479 28,200 780 Climbing Albuquerque Center
12:12PM 35.1019 -111.1306 24° Northeast 419 482 29,000 360 Climbing Albuquerque Center
12:13PM 35.2100 -111.0672 26° Northeast 426 490 29,000  Level Albuquerque Center
12:14PM 35.3397 -110.9950 24° Northeast 447 514 29,000  Level Albuquerque Center
12:15PM 35.4483 -110.9353 24° Northeast 449 517 29,000  Level Albuquerque Center
12:16PM 35.5717 -110.8669 24° Northeast 439 505 29,000  Level Albuquerque Center
12:17PM 35.6733 -110.8081 25° Northeast 428 493 29,000  Level Albuquerque Center
12:18PM 35.7928 -110.7403 25° Northeast 423 487 29,000 -540 Level Albuquerque Center
12:19PM 35.8933 -110.6822 25° Northeast 419 482 27,900 -1,140 Descending Albuquerque Center
12:20PM 35.9589 -110.6458 24° Northeast 418 481 27,200 -600 Descending Denver Center
12:21PM 36.0633 -110.5858 25° Northeast 415 478 27,000 -120 Descending Denver Center
12:22PM 36.1636 -110.5289 25° Northeast 404 465 27,000  Level Denver Center
12:23PM 36.2669 -110.4703 25° Northeast 405 466 27,000  Level Denver Center
12:24PM 36.3981 -110.3947 25° Northeast 425 489 27,000  Level Denver Center
12:25PM 36.5128 -110.3289 25° Northeast 442 509 27,000  Level Denver Center
12:26PM 36.6314 -110.2597 25° Northeast 464 534 27,000  Level Denver Center
12:27PM 36.7475 -110.1908 25° Northeast 463 533 27,000  Level Denver Center
12:28PM 36.8669 -110.1222 25° Northeast 469 540 27,000  Level Denver Center
12:29PM 36.9806 -110.0114 38° Northeast 464 534 27,000  Level Denver Center
12:30PM 37.0628 -109.9075 45° Northeast 442 509 27,000  Level Denver Center
12:31PM 37.1542 -109.7900 46° Northeast 424 488 27,000  Level Denver Center
12:32PM 37.2300 -109.6908 46° Northeast 414 476 27,000  Level Denver Center
12:33PM 37.3161 -109.5797 46° Northeast 398 458 27,000  Level Denver Center
12:34PM 37.3889 -109.4856 46° Northeast 392 451 27,000  Level Denver Center
12:35PM 37.4750 -109.3717 46° Northeast 402 463 27,000  Level Denver Center
12:36PM 37.5439 -109.2819 46° Northeast 377 434 27,000  Level Denver Center
12:38PM 37.6094 -109.1944 47° Northeast 361 415 27,000  Level Denver Center
12:39PM 37.6844 -109.0953 46° Northeast 351 404 27,000  Level Denver Center
12:40PM 37.7489 -109.0097 46° Northeast 350 403 27,000 -60 Level Denver Center
12:42PM 37.9614 -108.8636 28° Northeast 378 435 26,900 -720 Descending Denver Center
12:43PM 38.0553 -108.8164 22° Northeast 378 435 24,800 -2,160 Descending Denver Center
12:44PM 38.1569 -108.7678 21° North 373 429 22,500 -1,980 Descending Denver Center
12:45PM 38.2358 -108.7297 21° North 377 434 20,800 -2,280 Descending Denver Center
12:46PM 38.3678 -108.6672 20° North 394 453 17,900 -2,400 Descending Denver Center
12:47PM 38.4761 -108.6156 20° North 385 443 15,900 -1,440 Descending Denver Center
12:48PM 38.5661 -108.5719 21° North 344 396 15,000 -960 Descending Denver Center
12:49PM 38.6425 -108.5358 20° North 311 358 14,000 -1,260 Descending Denver Center
12:50PM 38.7300 -108.4925 21° North 299 344 12,500 -1,200 Descending Denver Center
12:51PM 38.7944 -108.4617 20° North 258 297 11,600 -1,320 Descending Denver Center
12:52PM 38.8572 -108.4239 25° Northeast 226 260 9,800 -1,200 Descending Denver Center
12:53PM 38.9089 -108.3867 29° Northeast 214 246 9,000 -720 Descending Denver Center
12:54PM 38.9697 -108.3806 North 184 212 8,200 -540 Descending Denver Center
12:55PM 39.0031 -108.4092 326° Northwest 169 194 7,900 -720 Descending Denver Center
12:57PM 39.0469 -108.4472 326° Northwest 153 176 6,800 -960 Descending Denver Center
12:58PM 39.0814 -108.4794 324° Northwest 152 175 5,900 -900 Descending Denver Center
12:59PM 39.1172 -108.5125 324° Northwest 150 173 5,000 -540 Descending Denver Center
01:00PM 39.1389 -108.5531 305° West 149 171 4,900 -120 Descending Denver Center
01:02PM 39.1224 -108.5267 123° Southeast  Level Estimated
01:09PM 39.1224 -108.5267 123° Southeast  Level Estimated